Weather at Herdla Airport [CLOSED]

Public forecast

Using degrees Celsius for public forecast. Weather courtesy of forecast.io.

Closest aviation weather report (METAR) to Herdla Airport

Closest report is Bergen Airport, Flesland, 18.7 nm (34.7 km) SSE. Retrieved 2021/10/22 03:20 UTC (21 minutes ago):

ENBR 220320Z 06006KT 9999 -SHRA FEW017CB BKN030 02/01 Q0991 RMK WIND 1200FT 03008KT

Closest aviation forecast (TAF) to Herdla Airport

Closest forecast is Bergen Airport, Flesland, 18.7 nm (34.7 km) SSE. Retrieved 2021-10-22 00:57 UTC (3 hours ago):

TAF ENBR 212300Z 2200/2224 33015KT 9999 -SHRA FEW015TCU BKN030 TEMPO 2200/2218 33018G28KT 4000 SHRAGS BKN012 SCT018CB PROB40 TEMPO 2209/2216 33028G40KT